sensor_id;sensor_type;location;lat;lon;timestamp;pressure;altitude;pressure_sealevel;temperature;humidity
73516;BME280;61763;51.416;5.442;2023-11-21T00:01:15;101020.06;;;5.73;100.00
73516;BME280;61763;51.416;5.442;2023-11-21T00:03:40;101006.63;;;5.74;100.00
73516;BME280;61763;51.416;5.442;2023-11-21T00:06:06;101018.22;;;5.75;100.00
73516;BME280;61763;51.416;5.442;2023-11-21T00:08:35;101019.03;;;5.77;100.00
73516;BME280;61763;51.416;5.442;2023-11-21T00:11:00;101019.03;;;5.77;100.00
73516;BME280;61763;51.416;5.442;2023-11-21T00:13:26;101015.50;;;5.76;100.00
73516;BME280;61763;51.416;5.442;2023-11-21T00:15:51;101021.75;;;5.75;100.00
73516;BME280;61763;51.416;5.442;2023-11-21T00:18:17;101020.06;;;5.73;100.00
73516;BME280;61763;51.416;5.442;2023-11-21T00:20:42;101026.34;;;5.72;100.00
73516;BME280;61763;51.416;5.442;2023-11-21T00:23:08;101030.88;;;5.70;100.00
73516;BME280;61763;51.416;5.442;2023-11-21T00:25:34;101024.69;;;5.66;100.00
73516;BME280;61763;51.416;5.442;2023-11-21T00:28:00;101031.03;;;5.62;100.00
73516;BME280;61763;51.416;5.442;2023-11-21T00:30:27;101030.34;;;5.55;100.00
73516;BME280;61763;51.416;5.442;2023-11-21T00:32:53;101028.78;;;5.47;100.00
73516;BME280;61763;51.416;5.442;2023-11-21T00:35:18;101026.50;;;5.31;100.00
73516;BME280;61763;51.416;5.442;2023-11-21T00:37:43;101035.78;;;5.16;100.00
73516;BME280;61763;51.416;5.442;2023-11-21T00:40:12;101028.13;;;5.02;100.00
73516;BME280;61763;51.416;5.442;2023-11-21T00:42:40;101032.91;;;4.88;100.00
73516;BME280;61763;51.416;5.442;2023-11-21T00:45:06;101026.09;;;4.74;100.00
73516;BME280;61763;51.416;5.442;2023-11-21T00:47:32;101034.22;;;4.70;100.00
73516;BME280;61763;51.416;5.442;2023-11-21T00:49:57;101030.88;;;4.60;100.00
73516;BME280;61763;51.416;5.442;2023-11-21T00:52:23;101035.53;;;4.50;100.00
73516;BME280;61763;51.416;5.442;2023-11-21T00:54:49;101036.59;;;4.45;100.00
73516;BME280;61763;51.416;5.442;2023-11-21T00:57:15;101052.72;;;4.38;100.00
73516;BME280;61763;51.416;5.442;2023-11-21T00:59:40;101046.63;;;4.33;100.00
73516;BME280;61763;51.416;5.442;2023-11-21T01:02:07;101049.47;;;4.26;100.00
73516;BME280;61763;51.416;5.442;2023-11-21T01:04:35;101059.47;;;4.14;100.00
73516;BME280;61763;51.416;5.442;2023-11-21T01:07:01;101057.03;;;4.03;100.00
73516;BME280;61763;51.416;5.442;2023-11-21T01:09:27;101059.94;;;3.90;100.00
73516;BME280;61763;51.416;5.442;2023-11-21T01:11:53;101063.72;;;3.78;100.00
73516;BME280;61763;51.416;5.442;2023-11-21T01:14:18;101059.44;;;3.69;100.00
73516;BME280;61763;51.416;5.442;2023-11-21T01:16:44;101071.16;;;3.60;100.00
73516;BME280;61763;51.416;5.442;2023-11-21T01:19:10;101080.22;;;3.51;100.00
73516;BME280;61763;51.416;5.442;2023-11-21T01:21:36;101075.88;;;3.44;100.00
73516;BME280;61763;51.416;5.442;2023-11-21T01:24:02;101078.66;;;3.38;100.00
73516;BME280;61763;51.416;5.442;2023-11-21T01:26:27;101074.22;;;3.37;100.00
73516;BME280;61763;51.416;5.442;2023-11-21T01:28:53;101075.25;;;3.31;100.00
73516;BME280;61763;51.416;5.442;2023-11-21T01:31:19;101086.81;;;3.30;100.00
73516;BME280;61763;51.416;5.442;2023-11-21T01:33:45;101079.75;;;3.26;100.00
73516;BME280;61763;51.416;5.442;2023-11-21T01:36:11;101090.50;;;3.22;100.00
73516;BME280;61763;51.416;5.442;2023-11-21T01:38:36;101086.16;;;3.14;100.00
73516;BME280;61763;51.416;5.442;2023-11-21T01:41:01;101092.41;;;3.12;100.00
73516;BME280;61763;51.416;5.442;2023-11-21T01:43:29;101089.81;;;3.09;100.00
73516;BME280;61763;51.416;5.442;2023-11-21T01:45:57;101096.00;;;3.12;100.00
73516;BME280;61763;51.416;5.442;2023-11-21T01:48:24;101102.16;;;3.14;100.00
73516;BME280;61763;51.416;5.442;2023-11-21T01:50:50;101101.31;;;3.12;100.00
73516;BME280;61763;51.416;5.442;2023-11-21T01:53:16;101098.56;;;3.19;100.00
73516;BME280;61763;51.416;5.442;2023-11-21T01:55:41;101101.00;;;3.31;100.00
73516;BME280;61763;51.416;5.442;2023-11-21T01:58:10;101095.47;;;3.45;100.00
73516;BME280;61763;51.416;5.442;2023-11-21T02:00:37;101086.25;;;3.63;100.00
73516;BME280;61763;51.416;5.442;2023-11-21T02:03:04;101086.84;;;3.80;100.00
73516;BME280;61763;51.416;5.442;2023-11-21T02:05:31;101090.06;;;3.98;100.00
73516;BME280;61763;51.416;5.442;2023-11-21T02:07:57;101095.13;;;4.12;100.00
73516;BME280;61763;51.416;5.442;2023-11-21T02:10:22;101097.50;;;4.27;100.00
73516;BME280;61763;51.416;5.442;2023-11-21T02:12:49;101102.59;;;4.39;100.00
73516;BME280;61763;51.416;5.442;2023-11-21T02:15:17;101105.00;;;4.53;100.00
73516;BME280;61763;51.416;5.442;2023-11-21T02:17:47;101102.94;;;4.65;100.00
73516;BME280;61763;51.416;5.442;2023-11-21T02:20:16;101108.06;;;4.77;100.00
73516;BME280;61763;51.416;5.442;2023-11-21T02:22:44;101105.91;;;4.91;100.00
73516;BME280;61763;51.416;5.442;2023-11-21T02:25:10;101112.03;;;4.98;100.00
73516;BME280;61763;51.416;5.442;2023-11-21T02:27:36;101121.75;;;5.02;100.00
73516;BME280;61763;51.416;5.442;2023-11-21T02:30:02;101124.38;;;5.04;100.00
73516;BME280;61763;51.416;5.442;2023-11-21T02:32:30;101118.97;;;5.07;100.00
73516;BME280;61763;51.416;5.442;2023-11-21T02:34:57;101125.09;;;5.11;100.00
73516;BME280;61763;51.416;5.442;2023-11-21T02:37:27;101122.38;;;5.12;100.00
73516;BME280;61763;51.416;5.442;2023-11-21T02:39:52;101125.00;;;5.15;100.00
73516;BME280;61763;51.416;5.442;2023-11-21T02:42:19;101137.38;;;5.19;100.00
73516;BME280;61763;51.416;5.442;2023-11-21T02:44:45;101136.44;;;5.22;100.00
73516;BME280;61763;51.416;5.442;2023-11-21T02:47:10;101138.25;;;5.21;100.00
73516;BME280;61763;51.416;5.442;2023-11-21T02:49:36;101140.81;;;5.26;100.00
73516;BME280;61763;51.416;5.442;2023-11-21T02:52:02;101132.81;;;5.24;100.00
73516;BME280;61763;51.416;5.442;2023-11-21T02:54:28;101129.22;;;5.27;100.00
73516;BME280;61763;51.416;5.442;2023-11-21T02:56:54;101127.38;;;5.29;100.00
73516;BME280;61763;51.416;5.442;2023-11-21T02:59:19;101122.84;;;5.31;100.00
73516;BME280;61763;51.416;5.442;2023-11-21T03:01:45;101129.13;;;5.30;100.00
73516;BME280;61763;51.416;5.442;2023-11-21T03:04:11;101130.00;;;5.31;100.00
73516;BME280;61763;51.416;5.442;2023-11-21T03:06:43;101129.22;;;5.27;100.00
73516;BME280;61763;51.416;5.442;2023-11-21T03:09:08;101125.56;;;5.30;100.00
73516;BME280;61763;51.416;5.442;2023-11-21T03:11:33;101132.75;;;5.28;100.00
73516;BME280;61763;51.416;5.442;2023-11-21T03:13:59;101125.47;;;5.33;100.00
73516;BME280;61763;51.416;5.442;2023-11-21T03:16:25;101130.91;;;5.30;100.00
73516;BME280;61763;51.416;5.442;2023-11-21T03:18:51;101143.38;;;5.31;100.00
73516;BME280;61763;51.416;5.442;2023-11-21T03:21:18;101139.84;;;5.30;100.00
73516;BME280;61763;51.416;5.442;2023-11-21T03:23:44;101138.03;;;5.31;100.00
73516;BME280;61763;51.416;5.442;2023-11-21T03:26:12;101146.13;;;5.28;100.00
73516;BME280;61763;51.416;5.442;2023-11-21T03:28:38;101140.69;;;5.31;100.00
73516;BME280;61763;51.416;5.442;2023-11-21T03:31:03;101146.16;;;5.26;100.00
73516;BME280;61763;51.416;5.442;2023-11-21T03:33:29;101146.13;;;5.28;100.00
73516;BME280;61763;51.416;5.442;2023-11-21T03:35:54;101150.63;;;5.25;100.00
73516;BME280;61763;51.416;5.442;2023-11-21T03:38:20;101150.66;;;5.24;100.00
73516;BME280;61763;51.416;5.442;2023-11-21T03:40:45;101154.22;;;5.24;100.00
73516;BME280;61763;51.416;5.442;2023-11-21T03:43:12;101152.44;;;5.25;100.00
73516;BME280;61763;51.416;5.442;2023-11-21T03:45:37;101153.41;;;5.21;100.00
73516;BME280;61763;51.416;5.442;2023-11-21T03:48:04;101155.22;;;5.20;100.00
73516;BME280;61763;51.416;5.442;2023-11-21T03:50:29;101154.34;;;5.20;100.00
73516;BME280;61763;51.416;5.442;2023-11-21T03:52:55;101144.59;;;5.17;100.00
73516;BME280;61763;51.416;5.442;2023-11-21T03:55:20;101158.94;;;5.13;100.00
73516;BME280;61763;51.416;5.442;2023-11-21T03:57:45;101164.38;;;5.10;100.00
73516;BME280;61763;51.416;5.442;2023-11-21T04:00:11;101158.25;;;5.03;100.00
73516;BME280;61763;51.416;5.442;2023-11-21T04:02:38;101160.94;;;5.03;100.00
73516;BME280;61763;51.416;5.442;2023-11-21T04:05:07;101169.94;;;5.01;100.00
73516;BME280;61763;51.416;5.442;2023-11-21T04:07:33;101163.69;;;5.00;100.00
73516;BME280;61763;51.416;5.442;2023-11-21T04:09:59;101165.59;;;4.95;100.00
73516;BME280;61763;51.416;5.442;2023-11-21T04:12:24;101175.38;;;4.95;100.00
73516;BME280;61763;51.416;5.442;2023-11-21T04:14:50;101187.91;;;4.94;100.00
73516;BME280;61763;51.416;5.442;2023-11-21T04:17:18;101186.06;;;4.98;100.00
73516;BME280;61763;51.416;5.442;2023-11-21T04:19:44;101182.50;;;4.96;100.00
73516;BME280;61763;51.416;5.442;2023-11-21T04:22:10;101194.97;;;4.97;100.00
73516;BME280;61763;51.416;5.442;2023-11-21T04:24:35;101191.53;;;4.90;100.00
73516;BME280;61763;51.416;5.442;2023-11-21T04:27:01;101203.13;;;4.90;100.00
73516;BME280;61763;51.416;5.442;2023-11-21T04:29:28;101213.03;;;4.85;100.00
73516;BME280;61763;51.416;5.442;2023-11-21T04:31:53;101207.63;;;4.88;100.00
73516;BME280;61763;51.416;5.442;2023-11-21T04:34:18;101207.59;;;4.90;100.00
73516;BME280;61763;51.416;5.442;2023-11-21T04:36:45;101215.56;;;4.91;100.00
73516;BME280;61763;51.416;5.442;2023-11-21T04:39:10;101212.00;;;4.93;100.00
73516;BME280;61763;51.416;5.442;2023-11-21T04:41:36;101220.03;;;4.93;100.00
73516;BME280;61763;51.416;5.442;2023-11-21T04:44:05;101220.97;;;4.90;100.00
73516;BME280;61763;51.416;5.442;2023-11-21T04:46:31;101227.25;;;4.89;100.00
73516;BME280;61763;51.416;5.442;2023-11-21T04:48:57;101228.09;;;4.91;100.00
73516;BME280;61763;51.416;5.442;2023-11-21T04:51:23;101226.34;;;4.88;100.00
73516;BME280;61763;51.416;5.442;2023-11-21T04:53:48;101234.38;;;4.88;100.00
73516;BME280;61763;51.416;5.442;2023-11-21T04:56:14;101241.53;;;4.88;100.00
73516;BME280;61763;51.416;5.442;2023-11-21T04:58:40;101244.22;;;4.86;100.00
73516;BME280;61763;51.416;5.442;2023-11-21T05:01:07;101242.31;;;4.91;100.00
73516;BME280;61763;51.416;5.442;2023-11-21T05:03:33;101243.25;;;4.90;100.00
73516;BME280;61763;51.416;5.442;2023-11-21T05:05:59;101238.75;;;4.93;100.00
73516;BME280;61763;51.416;5.442;2023-11-21T05:08:25;101241.34;;;4.96;100.00
73516;BME280;61763;51.416;5.442;2023-11-21T05:10:51;101239.59;;;4.96;100.00
73516;BME280;61763;51.416;5.442;2023-11-21T05:13:17;101247.50;;;5.01;100.00
73516;BME280;61763;51.416;5.442;2023-11-21T05:15:43;101250.16;;;5.02;100.00
73516;BME280;61763;51.416;5.442;2023-11-21T05:18:09;101248.31;;;5.04;100.00
73516;BME280;61763;51.416;5.442;2023-11-21T05:20:35;101242.88;;;5.07;100.00
73516;BME280;61763;51.416;5.442;2023-11-21T05:23:02;101247.31;;;5.10;100.00
73516;BME280;61763;51.416;5.442;2023-11-21T05:25:27;101247.38;;;5.07;100.00
73516;BME280;61763;51.416;5.442;2023-11-21T05:27:53;101250.09;;;5.05;100.00
73516;BME280;61763;51.416;5.442;2023-11-21T05:30:22;101252.66;;;5.10;100.00
73516;BME280;61763;51.416;5.442;2023-11-21T05:32:47;101254.38;;;5.13;100.00
73516;BME280;61763;51.416;5.442;2023-11-21T05:35:12;101264.25;;;5.09;100.00
73516;BME280;61763;51.416;5.442;2023-11-21T05:37:42;101274.91;;;5.12;100.00
73516;BME280;61763;51.416;5.442;2023-11-21T05:40:08;101272.22;;;5.12;100.00
73516;BME280;61763;51.416;5.442;2023-11-21T05:42:34;101272.19;;;5.14;100.00
73516;BME280;61763;51.416;5.442;2023-11-21T05:45:00;101276.69;;;5.12;100.00
73516;BME280;61763;51.416;5.442;2023-11-21T05:47:41;101265.00;;;5.17;100.00
73516;BME280;61763;51.416;5.442;2023-11-21T05:50:11;101275.59;;;5.22;100.00
73516;BME280;61763;51.416;5.442;2023-11-21T05:52:38;101284.66;;;5.15;100.00
73516;BME280;61763;51.416;5.442;2023-11-21T05:55:05;101294.34;;;5.20;100.00
73516;BME280;61763;51.416;5.442;2023-11-21T05:57:32;101289.00;;;5.20;100.00
73516;BME280;61763;51.416;5.442;2023-11-21T05:59:58;101292.56;;;5.21;100.00
73516;BME280;61763;51.416;5.442;2023-11-21T06:02:23;101292.56;;;5.21;100.00
73516;BME280;61763;51.416;5.442;2023-11-21T06:04:48;101289.84;;;5.22;100.00
73516;BME280;61763;51.416;5.442;2023-11-21T06:07:15;101301.34;;;5.28;100.00
73516;BME280;61763;51.416;5.442;2023-11-21T06:09:40;101299.47;;;5.31;100.00
73516;BME280;61763;51.416;5.442;2023-11-21T06:12:06;101308.34;;;5.35;100.00
73516;BME280;61763;51.416;5.442;2023-11-21T06:14:31;101310.94;;;5.38;100.00
73516;BME280;61763;51.416;5.442;2023-11-21T06:17:00;101313.56;;;5.41;100.00
73516;BME280;61763;51.416;5.442;2023-11-21T06:19:25;101310.91;;;5.39;100.00
73516;BME280;61763;51.416;5.442;2023-11-21T06:21:51;101313.50;;;5.42;100.00
73516;BME280;61763;51.416;5.442;2023-11-21T06:24:16;101322.34;;;5.46;100.00
73516;BME280;61763;51.416;5.442;2023-11-21T06:26:42;101316.97;;;5.48;100.00
73516;BME280;61763;51.416;5.442;2023-11-21T06:29:09;101322.31;;;5.48;100.00
73516;BME280;61763;51.416;5.442;2023-11-21T06:31:34;101324.03;;;5.52;100.00
73516;BME280;61763;51.416;5.442;2023-11-21T06:34:00;101328.38;;;5.57;100.00
73516;BME280;61763;51.416;5.442;2023-11-21T06:36:25;101329.16;;;5.63;100.00
73516;BME280;61763;51.416;5.442;2023-11-21T06:38:52;101331.78;;;5.66;100.00
73516;BME280;61763;51.416;5.442;2023-11-21T06:41:17;101328.13;;;5.68;100.00
73516;BME280;61763;51.416;5.442;2023-11-21T06:43:43;101331.59;;;5.73;100.00
73516;BME280;61763;51.416;5.442;2023-11-21T06:46:12;101328.03;;;5.73;100.00
73516;BME280;61763;51.416;5.442;2023-11-21T06:48:42;101329.75;;;5.75;100.00
73516;BME280;61763;51.416;5.442;2023-11-21T06:51:07;101335.84;;;5.82;100.00
73516;BME280;61763;51.416;5.442;2023-11-21T06:53:33;101337.56;;;5.86;100.00
73516;BME280;61763;51.416;5.442;2023-11-21T06:55:59;101333.94;;;5.87;100.00
73516;BME280;61763;51.416;5.442;2023-11-21T06:58:26;101331.22;;;5.89;100.00
73516;BME280;61763;51.416;5.442;2023-11-21T07:00:51;101337.41;;;5.92;100.00
73516;BME280;61763;51.416;5.442;2023-11-21T07:03:17;101343.56;;;5.96;100.00
73516;BME280;61763;51.416;5.442;2023-11-21T07:05:44;101356.97;;;5.97;100.00
73516;BME280;61763;51.416;5.442;2023-11-21T07:08:11;101351.53;;;6.02;100.00
73516;BME280;61763;51.416;5.442;2023-11-21T07:10:38;101355.91;;;6.05;100.00
73516;BME280;61763;51.416;5.442;2023-11-21T07:13:05;101363.00;;;6.07;100.00
73516;BME280;61763;51.416;5.442;2023-11-21T07:15:32;101370.13;;;6.08;100.00
73516;BME280;61763;51.416;5.442;2023-11-21T07:17:57;101369.06;;;6.16;100.00
73516;BME280;61763;51.416;5.442;2023-11-21T07:20:23;101376.00;;;6.24;100.00
73516;BME280;61763;51.416;5.442;2023-11-21T07:22:50;101382.19;;;6.26;100.00
73516;BME280;61763;51.416;5.442;2023-11-21T07:25:17;101387.53;;;6.28;100.00
73516;BME280;61763;51.416;5.442;2023-11-21T07:27:43;101387.44;;;6.31;100.00
73516;BME280;61763;51.416;5.442;2023-11-21T07:30:11;101396.31;;;6.35;100.00
73516;BME280;61763;51.416;5.442;2023-11-21T07:32:38;101398.91;;;6.38;100.00
73516;BME280;61763;51.416;5.442;2023-11-21T07:35:05;101409.56;;;6.41;100.00
73516;BME280;61763;51.416;5.442;2023-11-21T07:37:30;101401.50;;;6.42;100.00
73516;BME280;61763;51.416;5.442;2023-11-21T07:39:56;101408.50;;;6.48;100.00
73516;BME280;61763;51.416;5.442;2023-11-21T07:42:24;101408.50;;;6.48;100.00
73516;BME280;61763;51.416;5.442;2023-11-21T07:44:51;101412.84;;;6.52;100.00
73516;BME280;61763;51.416;5.442;2023-11-21T07:47:17;101417.25;;;6.55;100.00
73516;BME280;61763;51.416;5.442;2023-11-21T07:49:42;101425.16;;;6.61;100.00
73516;BME280;61763;51.416;5.442;2023-11-21T07:52:09;101430.41;;;6.67;100.00
73516;BME280;61763;51.416;5.442;2023-11-21T07:54:35;101425.78;;;6.72;100.00
73516;BME280;61763;51.416;5.442;2023-11-21T07:57:01;101431.94;;;6.77;100.00
73516;BME280;61763;51.416;5.442;2023-11-21T07:59:26;101430.91;;;6.81;100.00
73516;BME280;61763;51.416;5.442;2023-11-21T08:01:51;101440.69;;;6.84;100.00
73516;BME280;61763;51.416;5.442;2023-11-21T08:04:17;101439.78;;;6.85;100.00
73516;BME280;61763;51.416;5.442;2023-11-21T08:06:42;101439.78;;;6.85;100.00
73516;BME280;61763;51.416;5.442;2023-11-21T08:09:08;101445.81;;;6.93;100.00
73516;BME280;61763;51.416;5.442;2023-11-21T08:11:33;101448.41;;;6.98;100.00
73516;BME280;61763;51.416;5.442;2023-11-21T08:13:59;101448.31;;;7.01;100.00
73516;BME280;61763;51.416;5.442;2023-11-21T08:16:25;101449.97;;;7.07;100.00
73516;BME280;61763;51.416;5.442;2023-11-21T08:18:50;101447.25;;;7.08;100.00
73516;BME280;61763;51.416;5.442;2023-11-21T08:21:16;101439.88;;;7.15;100.00
73516;BME280;61763;51.416;5.442;2023-11-21T08:23:41;101441.75;;;7.13;100.00
73516;BME280;61763;51.416;5.442;2023-11-21T08:26:07;101446.28;;;7.09;100.00
73516;BME280;61763;51.416;5.442;2023-11-21T08:28:34;101447.19;;;7.10;100.00
73516;BME280;61763;51.416;5.442;2023-11-21T08:31:01;101454.91;;;7.22;100.00
73516;BME280;61763;51.416;5.442;2023-11-21T08:33:26;101456.78;;;7.20;100.00
73516;BME280;61763;51.416;5.442;2023-11-21T08:35:51;101461.28;;;7.18;100.00
73516;BME280;61763;51.416;5.442;2023-11-21T08:38:17;101468.28;;;7.24;100.00
73516;BME280;61763;51.416;5.442;2023-11-21T08:40:42;101471.63;;;7.33;100.00
73516;BME280;61763;51.416;5.442;2023-11-21T08:43:08;101482.16;;;7.41;100.00
73516;BME280;61763;51.416;5.442;2023-11-21T08:45:34;101477.75;;;7.39;100.00
73516;BME280;61763;51.416;5.442;2023-11-21T08:48:03;101483.72;;;7.50;100.00
73516;BME280;61763;51.416;5.442;2023-11-21T08:50:29;101483.63;;;7.53;100.00
73516;BME280;61763;51.416;5.442;2023-11-21T08:52:55;101480.75;;;7.59;100.00
73516;BME280;61763;51.416;5.442;2023-11-21T08:55:21;101488.72;;;7.62;100.00
73516;BME280;61763;51.416;5.442;2023-11-21T08:57:46;101491.22;;;7.70;100.00
73516;BME280;61763;51.416;5.442;2023-11-21T09:00:12;101488.44;;;7.73;100.00
73516;BME280;61763;51.416;5.442;2023-11-21T09:02:42;101491.00;;;7.78;100.00
73516;BME280;61763;51.416;5.442;2023-11-21T09:05:09;101494.66;;;7.75;100.00
73516;BME280;61763;51.416;5.442;2023-11-21T09:07:35;101494.59;;;7.77;100.00
73516;BME280;61763;51.416;5.442;2023-11-21T09:10:01;101499.94;;;7.78;100.00
73516;BME280;61763;51.416;5.442;2023-11-21T09:12:27;101493.50;;;7.84;100.00
73516;BME280;61763;51.416;5.442;2023-11-21T09:14:53;101499.75;;;7.84;100.00
73516;BME280;61763;51.416;5.442;2023-11-21T09:17:19;101500.38;;;7.94;100.00
73516;BME280;61763;51.416;5.442;2023-11-21T09:19:44;101502.16;;;7.95;100.00
73516;BME280;61763;51.416;5.442;2023-11-21T09:22:14;101502.16;;;7.95;100.00
73516;BME280;61763;51.416;5.442;2023-11-21T09:24:40;101509.22;;;7.98;100.00
73516;BME280;61763;51.416;5.442;2023-11-21T09:27:06;101506.81;;;7.88;100.00
73516;BME280;61763;51.416;5.442;2023-11-21T09:29:32;101511.97;;;7.96;100.00
73516;BME280;61763;51.416;5.442;2023-11-21T09:31:57;101520.84;;;8.00;100.00
73516;BME280;61763;51.416;5.442;2023-11-21T09:34:26;101517.19;;;8.01;100.00
73516;BME280;61763;51.416;5.442;2023-11-21T09:36:52;101528.75;;;8.04;100.00
73516;BME280;61763;51.416;5.442;2023-11-21T09:39:17;101539.25;;;8.14;100.00
73516;BME280;61763;51.416;5.442;2023-11-21T09:41:50;101535.59;;;8.16;100.00
73516;BME280;61763;51.416;5.442;2023-11-21T09:44:23;101541.44;;;8.31;100.00
73516;BME280;61763;51.416;5.442;2023-11-21T09:46:54;101544.00;;;8.35;100.00
73516;BME280;61763;51.416;5.442;2023-11-21T09:49:23;101546.53;;;8.40;100.00
73516;BME280;61763;51.416;5.442;2023-11-21T09:51:52;101550.94;;;8.42;100.00
73516;BME280;61763;51.416;5.442;2023-11-21T09:54:20;101551.50;;;8.55;100.00
73516;BME280;61763;51.416;5.442;2023-11-21T09:56:47;101562.16;;;8.58;100.00
73516;BME280;61763;51.416;5.442;2023-11-21T09:59:14;101564.66;;;8.65;100.00
73516;BME280;61763;51.416;5.442;2023-11-21T10:01:41;101561.69;;;8.74;100.00
73516;BME280;61763;51.416;5.442;2023-11-21T10:04:08;101565.19;;;8.77;100.00
73516;BME280;61763;51.416;5.442;2023-11-21T10:06:39;101569.41;;;8.85;100.00
73516;BME280;61763;51.416;5.442;2023-11-21T10:09:06;101570.25;;;8.87;100.00
73516;BME280;61763;51.416;5.442;2023-11-21T10:11:39;101575.19;;;9.01;100.00
73516;BME280;61763;51.416;5.442;2023-11-21T10:14:12;101583.91;;;9.09;100.00
73516;BME280;61763;51.416;5.442;2023-11-21T10:16:39;101579.78;;;9.25;100.00
73516;BME280;61763;51.416;5.442;2023-11-21T10:19:06;101581.41;;;9.31;100.00
73516;BME280;61763;51.416;5.442;2023-11-21T10:21:34;101586.31;;;9.45;100.00
73516;BME280;61763;51.416;5.442;2023-11-21T10:23:59;101588.03;;;9.47;100.00
73516;BME280;61763;51.416;5.442;2023-11-21T10:26:26;101585.91;;;9.57;100.00
73516;BME280;61763;51.416;5.442;2023-11-21T10:29:00;101588.94;;;9.73;100.00
73516;BME280;61763;51.416;5.442;2023-11-21T10:31:30;101588.63;;;9.82;100.00
73516;BME280;61763;51.416;5.442;2023-11-21T10:34:15;101591.78;;;9.95;100.00
73516;BME280;61763;51.416;5.442;2023-11-21T10:36:41;101598.19;;;9.91;100.00
73516;BME280;61763;51.416;5.442;2023-11-21T10:39:08;101593.69;;;9.92;100.00
73516;BME280;61763;51.416;5.442;2023-11-21T10:41:35;101592.06;;;9.86;100.00
73516;BME280;61763;51.416;5.442;2023-11-21T10:44:01;101593.69;;;9.92;100.00
73516;BME280;61763;51.416;5.442;2023-11-21T10:46:31;101582.47;;;10.04;100.00
73516;BME280;61763;51.416;5.442;2023-11-21T10:48:59;101586.09;;;10.03;100.00
73516;BME280;61763;51.416;5.442;2023-11-21T10:51:25;101586.16;;;10.02;100.00
73516;BME280;61763;51.416;5.442;2023-11-21T10:53:52;101591.47;;;10.03;100.00
73516;BME280;61763;51.416;5.442;2023-11-21T10:56:19;101601.28;;;10.06;100.00
73516;BME280;61763;51.416;5.442;2023-11-21T10:58:50;101599.13;;;10.15;100.00
73516;BME280;61763;51.416;5.442;2023-11-21T11:01:20;101592.22;;;10.32;100.00
73516;BME280;61763;51.416;5.442;2023-11-21T11:03:49;101592.38;;;10.27;100.00
73516;BME280;61763;51.416;5.442;2023-11-21T11:06:17;101602.06;;;10.33;100.00
73516;BME280;61763;51.416;5.442;2023-11-21T11:08:43;101602.25;;;10.28;100.00
73516;BME280;61763;51.416;5.442;2023-11-21T11:11:09;101605.72;;;10.33;100.00
73516;BME280;61763;51.416;5.442;2023-11-21T11:13:37;101602.06;;;10.34;100.00
73516;BME280;61763;51.416;5.442;2023-11-21T11:16:03;101598.25;;;10.40;100.00
73516;BME280;61763;51.416;5.442;2023-11-21T11:18:33;101596.81;;;10.30;100.00
73516;BME280;61763;51.416;5.442;2023-11-21T11:26:57;101616.22;;;10.41;100.00
73516;BME280;61763;51.416;5.442;2023-11-21T11:29:50;101617.69;;;10.50;100.00
73516;BME280;61763;51.416;5.442;2023-11-21T11:35:15;101619.19;;;10.33;100.00
73516;BME280;61763;51.416;5.442;2023-11-21T11:37:43;101622.78;;;10.34;100.00
73516;BME280;61763;51.416;5.442;2023-11-21T11:40:15;101618.56;;;10.25;100.00
73516;BME280;61763;51.416;5.442;2023-11-21T11:42:56;101621.75;;;10.11;100.00
73516;BME280;61763;51.416;5.442;2023-11-21T11:45:32;101639.56;;;10.15;100.00
73516;BME280;61763;51.416;5.442;2023-11-21T11:48:00;101628.84;;;10.14;100.00
73516;BME280;61763;51.416;5.442;2023-11-21T11:50:27;101630.31;;;10.23;100.00
73516;BME280;61763;51.416;5.442;2023-11-21T11:52:53;101620.06;;;10.34;100.00
73516;BME280;61763;51.416;5.442;2023-11-21T11:55:25;101624.41;;;10.38;100.00
73516;BME280;61763;51.416;5.442;2023-11-21T11:57:52;101635.97;;;10.42;100.00
73516;BME280;61763;51.416;5.442;2023-11-21T12:00:40;101633.63;;;10.56;100.00
73516;BME280;61763;51.416;5.442;2023-11-21T12:03:08;101649.72;;;10.59;100.00
73516;BME280;61763;51.416;5.442;2023-11-21T12:05:35;101650.88;;;10.52;100.00
73516;BME280;61763;51.416;5.442;2023-11-21T12:08:04;101658.16;;;10.50;100.00
73516;BME280;61763;51.416;5.442;2023-11-21T12:10:32;101661.78;;;10.49;100.00
73516;BME280;61763;51.416;5.442;2023-11-21T12:13:02;101656.69;;;10.41;100.00
73516;BME280;61763;51.416;5.442;2023-11-21T12:15:28;101673.09;;;10.35;100.00
73516;BME280;61763;51.416;5.442;2023-11-21T12:17:56;101674.06;;;10.32;100.00
73516;BME280;61763;51.416;5.442;2023-11-21T12:20:24;101668.81;;;10.28;100.00
73516;BME280;61763;51.416;5.442;2023-11-21T12:22:56;101674.28;;;10.26;100.00
73516;BME280;61763;51.416;5.442;2023-11-21T12:25:26;101679.16;;;10.15;100.00
73516;BME280;61763;51.416;5.442;2023-11-21T12:27:55;101681.06;;;10.11;100.00
73516;BME280;61763;51.416;5.442;2023-11-21T12:30:22;101682.97;;;10.09;100.00
73516;BME280;61763;51.416;5.442;2023-11-21T12:32:52;101688.34;;;10.09;100.00
73516;BME280;61763;51.416;5.442;2023-11-21T12:35:23;101692.09;;;10.05;100.00
73516;BME280;61763;51.416;5.442;2023-11-21T12:37:51;101687.06;;;9.94;100.00
73516;BME280;61763;51.416;5.442;2023-11-21T12:40:17;101698.88;;;9.90;100.00
73516;BME280;61763;51.416;5.442;2023-11-21T12:42:44;101704.44;;;9.86;100.00
73516;BME280;61763;51.416;5.442;2023-11-21T12:47:47;101704.50;;;9.84;100.00
73516;BME280;61763;51.416;5.442;2023-11-21T12:50:13;101696.47;;;9.82;100.00
73516;BME280;61763;51.416;5.442;2023-11-21T12:52:44;101696.47;;;9.82;100.00
73516;BME280;61763;51.416;5.442;2023-11-21T12:55:17;101702.66;;;9.85;100.00
73516;BME280;61763;51.416;5.442;2023-11-21T12:57:44;101710.75;;;9.85;100.00